createdAt,value
2022-11-29T00:01:36.584Z,5.17
2022-11-29T00:04:05.111Z,5.17
2022-11-29T00:06:34.782Z,5.10
2022-11-29T00:09:07.298Z,5.06
2022-11-29T00:11:54.217Z,6.21
2022-11-29T00:14:23.569Z,7.17
2022-11-29T00:16:52.682Z,7.44
2022-11-29T00:19:20.616Z,7.51
2022-11-29T00:21:48.817Z,7.49
2022-11-29T00:24:18.078Z,7.56
2022-11-29T00:26:45.924Z,7.56
2022-11-29T00:29:14.451Z,7.57
2022-11-29T00:31:42.878Z,7.76
2022-11-29T00:34:11.986Z,7.71
2022-11-29T00:36:40.127Z,7.79
2022-11-29T00:39:11.621Z,7.70
2022-11-29T00:41:41.336Z,7.88
2022-11-29T00:44:09.459Z,7.83
2022-11-29T00:46:37.473Z,7.83
2022-11-29T00:49:06.316Z,7.71
2022-11-29T00:51:34.222Z,7.79
2022-11-29T00:54:02.022Z,7.90
2022-11-29T00:56:29.852Z,7.63
2022-11-29T00:58:59.136Z,7.53
2022-11-29T01:01:27.171Z,7.52
2022-11-29T01:03:55.005Z,7.50
2022-11-29T01:06:22.843Z,7.72
2022-11-29T01:08:50.721Z,7.66
2022-11-29T01:11:21.101Z,7.83
2022-11-29T01:13:50.112Z,8.04
2022-11-29T01:16:19.338Z,7.92
2022-11-29T01:18:47.731Z,7.97
2022-11-29T01:21:18.012Z,8.04
2022-11-29T01:23:46.131Z,7.91
2022-11-29T01:26:16.452Z,7.82
2022-11-29T01:28:47.036Z,7.79
2022-11-29T01:31:20.702Z,7.79
2022-11-29T01:33:50.370Z,7.77
2022-11-29T01:36:18.300Z,7.59
2022-11-29T01:38:46.132Z,7.62
2022-11-29T01:41:17.550Z,7.49
2022-11-29T01:44:01.380Z,7.39
2022-11-29T01:46:31.077Z,7.27
2022-11-29T01:49:04.481Z,7.52
2022-11-29T01:51:34.611Z,7.67
2022-11-29T01:54:02.812Z,7.63
2022-11-29T01:56:33.492Z,7.41
2022-11-29T01:59:03.272Z,7.22
2022-11-29T02:01:31.155Z,7.38
2022-11-29T02:04:00.914Z,7.68
2022-11-29T02:06:30.175Z,7.52
2022-11-29T02:08:58.064Z,7.53
2022-11-29T02:12:04.111Z,7.43
2022-11-29T02:15:03.483Z,7.30
2022-11-29T02:17:38.250Z,7.51
2022-11-29T02:20:39.173Z,7.58
2022-11-29T02:23:25.742Z,7.41
2022-11-29T02:26:12.701Z,7.32
2022-11-29T02:28:59.060Z,7.21
2022-11-29T02:31:56.262Z,7.23
2022-11-29T02:34:52.589Z,7.25
2022-11-29T02:37:39.602Z,6.88
2022-11-29T02:40:39.849Z,7.08
2022-11-29T02:43:40.998Z,7.20
2022-11-29T02:46:25.267Z,7.42
2022-11-29T02:49:01.782Z,7.44
2022-11-29T02:51:40.285Z,7.30
2022-11-29T02:54:17.406Z,7.35
2022-11-29T02:56:52.257Z,7.71
2022-11-29T02:59:35.150Z,7.53
2022-11-29T03:02:10.325Z,7.69
2022-11-29T03:04:46.537Z,7.50
2022-11-29T03:07:24.897Z,7.48
2022-11-29T03:10:01.727Z,7.09
2022-11-29T03:12:34.881Z,7.29
2022-11-29T03:15:15.023Z,7.35
2022-11-29T03:17:56.421Z,7.31
2022-11-29T03:20:34.747Z,7.17
2022-11-29T03:23:14.814Z,7.24
2022-11-29T03:25:47.441Z,7.36
2022-11-29T03:28:19.850Z,7.35
2022-11-29T03:30:54.511Z,7.57
2022-11-29T03:33:28.207Z,7.60
2022-11-29T03:36:05.595Z,7.59
2022-11-29T03:38:40.819Z,7.43
2022-11-29T03:41:18.686Z,7.51
2022-11-29T03:43:51.476Z,7.50
2022-11-29T03:46:27.649Z,7.31
2022-11-29T03:49:01.480Z,7.30
2022-11-29T03:51:39.727Z,7.28
2022-11-29T03:54:13.974Z,7.38
2022-11-29T03:56:42.383Z,7.59
2022-11-29T03:59:20.165Z,7.42
2022-11-29T04:02:15.970Z,7.56
2022-11-29T04:05:04.995Z,7.40
2022-11-29T04:07:46.325Z,7.09
2022-11-29T04:10:33.686Z,7.13
2022-11-29T04:13:37.093Z,7.15
2022-11-29T04:16:33.666Z,7.24
2022-11-29T04:19:25.606Z,7.38
2022-11-29T04:22:16.382Z,7.31
2022-11-29T04:25:14.394Z,7.27
2022-11-29T04:28:04.860Z,7.50
2022-11-29T04:30:43.953Z,7.35
2022-11-29T04:33:47.574Z,7.39
2022-11-29T04:36:49.852Z,7.55
2022-11-29T04:39:42.811Z,7.49
2022-11-29T04:42:29.945Z,7.45
2022-11-29T04:45:20.124Z,7.35
2022-11-29T04:47:59.915Z,7.27
2022-11-29T04:50:43.163Z,7.15
2022-11-29T04:53:37.683Z,7.28
2022-11-29T04:56:18.804Z,7.31
2022-11-29T04:58:55.966Z,7.11
2022-11-29T05:01:36.459Z,7.43
2022-11-29T05:04:14.011Z,7.26
2022-11-29T05:06:49.478Z,7.11
2022-11-29T05:09:26.110Z,7.00
2022-11-29T05:12:04.441Z,7.18
2022-11-29T05:14:41.755Z,7.22
2022-11-29T05:17:32.141Z,7.13
2022-11-29T05:20:26.030Z,7.28
2022-11-29T05:23:17.933Z,7.33
2022-11-29T05:25:51.844Z,7.30
2022-11-29T05:28:27.114Z,7.29
2022-11-29T05:31:07.610Z,7.34
2022-11-29T05:33:55.018Z,7.49
2022-11-29T05:36:34.182Z,7.59
2022-11-29T05:39:16.749Z,7.53
2022-11-29T05:42:01.565Z,7.53
2022-11-29T05:44:37.420Z,7.52
2022-11-29T05:47:08.211Z,7.49
2022-11-29T05:49:45.534Z,7.28
2022-11-29T05:52:24.557Z,7.23
2022-11-29T05:55:06.894Z,7.24
2022-11-29T05:57:42.770Z,7.35
2022-11-29T06:00:13.001Z,7.14
2022-11-29T06:02:49.339Z,7.25
2022-11-29T06:05:29.954Z,7.47
2022-11-29T06:08:04.347Z,7.68
2022-11-29T06:10:35.095Z,7.70
2022-11-29T06:13:18.272Z,7.66
2022-11-29T06:16:18.053Z,7.49
2022-11-29T06:19:12.086Z,7.35
2022-11-29T06:21:55.857Z,7.21
2022-11-29T06:24:44.600Z,7.43
2022-11-29T06:27:31.704Z,7.32
2022-11-29T06:30:09.318Z,7.43
2022-11-29T06:32:47.445Z,7.31
2022-11-29T06:35:34.952Z,7.07
2022-11-29T06:38:10.104Z,6.97
2022-11-29T06:40:38.598Z,6.76
2022-11-29T06:43:06.881Z,6.73
2022-11-29T06:45:35.496Z,6.85
2022-11-29T06:48:06.073Z,6.84
2022-11-29T06:50:48.907Z,6.78
2022-11-29T06:53:26.447Z,7.02
2022-11-29T06:56:01.286Z,7.11
2022-11-29T06:58:43.936Z,7.25
2022-11-29T07:01:20.567Z,7.31
2022-11-29T07:04:09.702Z,7.25
2022-11-29T07:06:37.739Z,7.40
2022-11-29T07:09:14.323Z,7.46
2022-11-29T07:11:43.471Z,7.32
2022-11-29T07:14:11.863Z,7.32
2022-11-29T07:16:53.185Z,7.33
2022-11-29T07:19:36.287Z,7.41
2022-11-29T07:22:19.881Z,7.58
2022-11-29T07:25:00.598Z,7.72
2022-11-29T07:27:37.091Z,7.38
2022-11-29T07:30:12.071Z,7.24
2022-11-29T07:33:00.471Z,7.32
2022-11-29T07:35:39.143Z,7.48
2022-11-29T07:38:14.991Z,7.51
2022-11-29T07:40:51.271Z,7.38
2022-11-29T07:43:28.732Z,7.62
2022-11-29T07:45:57.580Z,7.66
2022-11-29T07:48:26.834Z,7.64
2022-11-29T07:50:55.331Z,7.52
2022-11-29T07:53:24.441Z,7.62
2022-11-29T07:55:54.097Z,7.60
2022-11-29T07:58:21.950Z,7.86
2022-11-29T08:00:49.867Z,7.79
2022-11-29T08:03:17.696Z,8.03
2022-11-29T08:05:47.145Z,8.18
2022-11-29T08:08:15.187Z,8.62
2022-11-29T08:10:43.002Z,8.85
2022-11-29T08:13:12.168Z,9.00
2022-11-29T08:15:45.843Z,9.11
2022-11-29T08:18:13.819Z,8.92
2022-11-29T08:20:42.223Z,8.42
2022-11-29T08:23:12.452Z,8.14
2022-11-29T08:25:40.859Z,7.93
2022-11-29T08:28:08.638Z,8.49
2022-11-29T08:30:37.788Z,8.36
2022-11-29T08:33:05.667Z,8.36
2022-11-29T08:35:35.484Z,8.33
2022-11-29T08:38:03.815Z,8.49
2022-11-29T08:40:31.696Z,8.55
2022-11-29T08:42:59.557Z,8.60
2022-11-29T08:45:27.346Z,8.58
2022-11-29T08:47:56.540Z,8.48
2022-11-29T08:50:25.572Z,8.20
2022-11-29T08:53:10.835Z,8.56
2022-11-29T08:55:40.667Z,8.42
2022-11-29T08:58:17.172Z,8.34
2022-11-29T09:00:47.084Z,8.50
2022-11-29T09:03:32.496Z,8.57
2022-11-29T09:06:10.450Z,8.47
2022-11-29T09:08:40.282Z,8.24
2022-11-29T09:11:09.453Z,8.50
2022-11-29T09:13:38.632Z,8.57
2022-11-29T09:16:08.927Z,8.79
2022-11-29T09:18:38.380Z,8.78
2022-11-29T09:21:07.882Z,8.79
2022-11-29T09:23:36.074Z,8.52
2022-11-29T09:26:05.236Z,8.66
2022-11-29T09:28:34.283Z,8.69
2022-11-29T09:31:07.106Z,8.83
2022-11-29T09:33:36.172Z,8.73
2022-11-29T09:36:04.977Z,8.95
2022-11-29T09:38:32.761Z,8.98
2022-11-29T09:41:07.857Z,8.32
2022-11-29T09:43:48.229Z,8.14
2022-11-29T09:46:24.876Z,7.25
2022-11-29T09:49:13.184Z,7.00
2022-11-29T09:51:53.233Z,6.72
2022-11-29T09:54:28.794Z,6.50
2022-11-29T09:56:58.051Z,6.43
2022-11-29T09:59:29.767Z,6.32
2022-11-29T10:02:06.074Z,6.23
2022-11-29T10:04:41.162Z,6.27
2022-11-29T10:07:19.491Z,6.21
2022-11-29T10:09:51.451Z,6.27
2022-11-29T10:12:24.445Z,6.17
2022-11-29T10:14:58.071Z,6.20
2022-11-29T10:17:38.072Z,6.28
2022-11-29T10:20:12.371Z,6.16
2022-11-29T10:22:49.297Z,6.24
2022-11-29T10:25:24.033Z,6.26
2022-11-29T10:27:52.220Z,6.31
2022-11-29T10:30:20.142Z,6.32
2022-11-29T10:32:53.157Z,6.26
2022-11-29T10:35:21.807Z,6.28
2022-11-29T10:38:22.585Z,6.27
2022-11-29T10:40:45.201Z,6.11
2022-11-29T10:43:13.059Z,6.10
2022-11-29T10:45:45.944Z,6.05
2022-11-29T10:48:17.922Z,5.96
2022-11-29T10:50:48.651Z,6.06
2022-11-29T10:53:19.225Z,6.09
2022-11-29T10:55:50.475Z,5.96
2022-11-29T10:58:24.849Z,5.98
2022-11-29T11:00:57.568Z,6.06
2022-11-29T11:03:34.629Z,6.10
2022-11-29T11:06:07.351Z,6.16
2022-11-29T11:08:36.497Z,6.11
2022-11-29T11:11:06.130Z,6.09
2022-11-29T11:13:34.090Z,6.01
2022-11-29T11:16:12.724Z,5.99
2022-11-29T11:18:42.339Z,5.89
2022-11-29T11:21:12.838Z,6.00
2022-11-29T11:23:46.534Z,6.07
2022-11-29T11:26:15.800Z,6.16
2022-11-29T11:28:49.893Z,6.25
2022-11-29T11:31:27.982Z,6.26
2022-11-29T11:33:57.384Z,6.30
2022-11-29T11:36:27.279Z,6.23
2022-11-29T11:38:56.735Z,6.15
2022-11-29T11:41:48.540Z,6.13
2022-11-29T11:44:47.928Z,5.98
2022-11-29T11:47:19.200Z,6.14
2022-11-29T11:49:55.751Z,6.19
2022-11-29T11:52:26.127Z,6.14
2022-11-29T11:54:56.587Z,6.25
2022-11-29T11:57:26.554Z,6.16
2022-11-29T11:59:55.969Z,6.20
2022-11-29T12:02:29.251Z,5.96
2022-11-29T12:05:02.064Z,5.91
2022-11-29T12:08:06.843Z,5.97
2022-11-29T12:10:27.897Z,6.06
2022-11-29T12:12:57.699Z,5.88
2022-11-29T12:15:30.493Z,6.24
2022-11-29T12:18:02.951Z,7.37
2022-11-29T12:20:35.052Z,7.37
2022-11-29T12:23:24.436Z,7.02
2022-11-29T12:25:56.656Z,6.70
2022-11-29T12:28:28.893Z,6.64
2022-11-29T12:31:06.913Z,6.39
2022-11-29T12:33:43.961Z,6.25
2022-11-29T12:36:30.005Z,6.29
2022-11-29T12:39:12.151Z,6.46
2022-11-29T12:41:53.780Z,6.49
2022-11-29T12:44:33.128Z,6.58
2022-11-29T12:47:34.709Z,6.60
2022-11-29T12:50:08.915Z,6.57
2022-11-29T12:52:45.134Z,6.59
2022-11-29T12:55:23.235Z,6.51
2022-11-29T12:58:00.052Z,6.45
2022-11-29T13:00:35.270Z,6.47
2022-11-29T13:03:13.351Z,6.38
2022-11-29T13:05:50.525Z,6.23
2022-11-29T13:08:42.953Z,6.04
2022-11-29T13:11:17.303Z,6.01
2022-11-29T13:13:50.000Z,5.95
2022-11-29T13:16:32.795Z,5.99
2022-11-29T13:19:08.264Z,5.94
2022-11-29T13:21:41.467Z,6.04
2022-11-29T13:24:19.410Z,5.91
2022-11-29T13:26:47.340Z,5.95
2022-11-29T13:29:18.025Z,5.96
2022-11-29T13:31:48.781Z,5.93
2022-11-29T13:34:22.930Z,5.98
2022-11-29T13:37:04.738Z,5.96
2022-11-29T13:39:52.786Z,5.93
2022-11-29T13:42:27.670Z,6.00
2022-11-29T13:45:04.008Z,6.11
2022-11-29T13:47:31.834Z,6.25
2022-11-29T13:50:02.491Z,6.11
2022-11-29T13:52:41.485Z,6.06
2022-11-29T13:55:32.216Z,5.92
2022-11-29T13:58:22.250Z,5.91
2022-11-29T14:00:51.829Z,5.87
2022-11-29T14:03:30.623Z,5.79
2022-11-29T14:06:09.740Z,5.78
2022-11-29T14:09:10.767Z,5.81
2022-11-29T14:11:34.709Z,5.89
2022-11-29T14:14:08.052Z,5.90
2022-11-29T14:16:39.348Z,5.87
2022-11-29T14:19:22.021Z,5.88
2022-11-29T14:22:19.095Z,5.78
2022-11-29T14:25:11.885Z,5.81
2022-11-29T14:28:03.042Z,5.79
2022-11-29T14:30:47.071Z,5.83
2022-11-29T14:33:35.674Z,5.69
2022-11-29T14:36:33.203Z,5.62
2022-11-29T14:39:14.272Z,5.61
2022-11-29T14:41:56.230Z,5.54
2022-11-29T14:44:28.843Z,5.38
2022-11-29T14:47:06.005Z,5.38
2022-11-29T14:49:44.326Z,5.44
2022-11-29T14:52:23.519Z,5.44
2022-11-29T14:55:00.968Z,5.42
2022-11-29T14:58:08.764Z,5.49
2022-11-29T15:00:56.113Z,5.53
2022-11-29T15:03:32.041Z,5.51
2022-11-29T15:06:08.791Z,5.51
2022-11-29T15:08:41.516Z,5.42
2022-11-29T15:11:18.930Z,5.49
2022-11-29T15:13:54.757Z,5.44
2022-11-29T15:16:37.981Z,5.45
2022-11-29T15:19:22.312Z,5.41
2022-11-29T15:22:03.723Z,5.45
2022-11-29T15:24:52.115Z,5.49
2022-11-29T15:27:20.788Z,5.53
2022-11-29T15:29:49.108Z,5.47
2022-11-29T15:32:23.994Z,5.38
2022-11-29T15:34:54.060Z,5.42
2022-11-29T15:37:40.109Z,5.35
2022-11-29T15:40:14.317Z,5.38
2022-11-29T15:42:44.637Z,5.31
2022-11-29T15:45:34.441Z,5.36
2022-11-29T15:48:18.046Z,5.37
2022-11-29T15:50:53.165Z,5.32
2022-11-29T15:53:24.804Z,5.16
2022-11-29T15:55:55.356Z,5.15
2022-11-29T15:58:24.114Z,5.20
2022-11-29T16:00:53.175Z,5.17
2022-11-29T16:03:28.954Z,5.19
2022-11-29T16:06:07.382Z,5.14
2022-11-29T16:08:37.786Z,5.13
2022-11-29T16:11:07.908Z,5.04
2022-11-29T16:13:39.897Z,4.98
2022-11-29T16:16:16.024Z,5.09
2022-11-29T16:18:48.016Z,5.09
2022-11-29T16:21:27.250Z,5.01
2022-11-29T16:23:55.723Z,4.89
2022-11-29T16:26:28.705Z,4.92
2022-11-29T16:28:58.051Z,4.93
2022-11-29T16:31:33.139Z,4.98
2022-11-29T16:34:10.126Z,4.84
2022-11-29T16:36:38.380Z,4.78
2022-11-29T16:39:09.094Z,4.83
2022-11-29T16:41:38.847Z,4.85
2022-11-29T16:44:28.464Z,4.94
2022-11-29T16:47:12.372Z,4.93
2022-11-29T16:49:41.757Z,4.80
2022-11-29T16:52:25.159Z,4.69
2022-11-29T16:54:53.382Z,4.71
2022-11-29T16:57:22.092Z,4.69
2022-11-29T16:59:50.597Z,4.76
2022-11-29T17:02:18.719Z,4.87
2022-11-29T17:04:48.174Z,4.79
2022-11-29T17:07:22.613Z,4.79
2022-11-29T17:09:50.710Z,4.73
2022-11-29T17:12:19.520Z,4.69
2022-11-29T17:14:47.479Z,4.78
2022-11-29T17:17:17.465Z,4.81
2022-11-29T17:19:47.224Z,4.89
2022-11-29T17:22:15.662Z,4.92
2022-11-29T17:24:47.909Z,4.92
2022-11-29T17:27:17.999Z,4.68
2022-11-29T17:29:45.938Z,4.79
2022-11-29T17:32:13.691Z,4.89
2022-11-29T17:34:41.668Z,4.85
2022-11-29T17:37:11.115Z,4.92
2022-11-29T17:39:39.307Z,4.75
2022-11-29T17:42:07.309Z,4.71
2022-11-29T17:44:35.620Z,4.69
2022-11-29T17:47:03.435Z,4.70
2022-11-29T17:49:31.256Z,4.73
2022-11-29T17:51:59.507Z,4.74
2022-11-29T17:54:29.450Z,4.72
2022-11-29T17:56:57.529Z,4.80
2022-11-29T17:59:25.530Z,4.86
2022-11-29T18:01:53.532Z,4.76
2022-11-29T18:04:21.799Z,4.72
2022-11-29T18:06:50.751Z,4.70
2022-11-29T18:09:20.234Z,4.65
2022-11-29T18:11:50.863Z,4.58
2022-11-29T18:14:20.700Z,4.68
2022-11-29T18:16:48.833Z,4.78
2022-11-29T18:19:19.117Z,4.75
2022-11-29T18:21:47.427Z,4.57
2022-11-29T18:24:27.802Z,4.54
2022-11-29T18:27:32.354Z,4.58
2022-11-29T18:30:05.444Z,4.58
2022-11-29T18:32:51.662Z,4.49
2022-11-29T18:35:37.802Z,4.54
2022-11-29T18:38:16.967Z,4.49
2022-11-29T18:41:37.747Z,4.58
2022-11-29T18:44:09.709Z,4.55
2022-11-29T18:46:38.909Z,4.54
2022-11-29T18:49:08.536Z,4.48
2022-11-29T18:51:37.911Z,4.48
2022-11-29T18:54:06.664Z,4.43
2022-11-29T18:56:36.194Z,4.44
2022-11-29T18:59:09.646Z,4.39
2022-11-29T19:01:41.202Z,4.53
2022-11-29T19:04:11.379Z,4.46
2022-11-29T19:06:40.783Z,4.45
2022-11-29T19:09:12.573Z,4.29
2022-11-29T19:11:40.725Z,4.37
2022-11-29T19:14:12.790Z,4.33
2022-11-29T19:16:43.157Z,4.37
2022-11-29T19:19:11.780Z,4.32
2022-11-29T19:21:40.728Z,4.35
2022-11-29T19:24:14.065Z,4.34
2022-11-29T19:26:44.590Z,4.39
2022-11-29T19:29:15.335Z,4.11
2022-11-29T19:31:43.793Z,4.26
2022-11-29T19:34:11.874Z,4.21
2022-11-29T19:36:43.402Z,4.24
2022-11-29T19:39:13.198Z,4.31
2022-11-29T19:41:43.889Z,4.25
2022-11-29T19:44:12.566Z,4.18
2022-11-29T19:46:44.208Z,4.13
2022-11-29T19:49:12.986Z,4.15
2022-11-29T19:51:43.907Z,4.16
2022-11-29T19:54:12.213Z,4.23
2022-11-29T19:56:40.561Z,4.28
2022-11-29T19:59:08.688Z,4.31
2022-11-29T20:01:41.339Z,4.08
2022-11-29T20:04:13.646Z,4.24
2022-11-29T20:06:42.738Z,4.21
2022-11-29T20:09:11.266Z,4.20
2022-11-29T20:11:39.635Z,4.23
2022-11-29T20:14:08.899Z,4.34
2022-11-29T20:16:38.929Z,4.43
2022-11-29T20:19:11.793Z,4.40
2022-11-29T20:21:44.170Z,4.19
2022-11-29T20:24:14.466Z,4.33
2022-11-29T20:26:44.332Z,4.29
2022-11-29T20:29:14.198Z,4.22
2022-11-29T20:31:49.595Z,4.27
2022-11-29T20:34:21.644Z,4.37
2022-11-29T20:37:13.575Z,4.35
2022-11-29T20:39:48.007Z,4.37
2022-11-29T20:42:36.746Z,4.22
2022-11-29T20:45:08.445Z,4.29
2022-11-29T20:47:45.796Z,4.29
2022-11-29T20:50:23.245Z,4.21
2022-11-29T20:53:02.603Z,4.16
2022-11-29T20:55:32.181Z,4.15
2022-11-29T20:58:03.114Z,4.10
2022-11-29T21:00:31.348Z,4.17
2022-11-29T21:02:59.336Z,4.06
2022-11-29T21:05:29.045Z,4.14
2022-11-29T21:08:00.544Z,4.05
2022-11-29T21:10:28.794Z,4.15
2022-11-29T21:12:57.259Z,4.23
2022-11-29T21:15:25.831Z,4.25
2022-11-29T21:17:54.856Z,4.05
2022-11-29T21:20:28.674Z,4.06
2022-11-29T21:23:04.736Z,4.12
2022-11-29T21:25:46.018Z,3.96
2022-11-29T21:28:16.211Z,3.94
2022-11-29T21:30:45.188Z,4.14
2022-11-29T21:33:14.677Z,4.01
2022-11-29T21:35:44.600Z,3.99
2022-11-29T21:38:18.579Z,3.97
2022-11-29T21:40:46.503Z,3.98
2022-11-29T21:43:17.720Z,4.01
2022-11-29T21:45:48.470Z,4.07
2022-11-29T21:48:34.017Z,3.92
2022-11-29T21:51:03.613Z,3.97
2022-11-29T21:53:32.301Z,4.03
2022-11-29T21:56:02.849Z,3.97
2022-11-29T21:58:33.404Z,4.01
2022-11-29T22:01:10.605Z,3.96
2022-11-29T22:03:39.405Z,3.81
2022-11-29T22:06:10.915Z,3.75
2022-11-29T22:08:41.121Z,3.62
2022-11-29T22:11:11.556Z,3.62
2022-11-29T22:14:01.889Z,3.66
2022-11-29T22:16:30.920Z,3.66
2022-11-29T22:18:58.879Z,3.71
2022-11-29T22:21:28.035Z,3.65
2022-11-29T22:23:55.854Z,3.53
2022-11-29T22:26:23.622Z,3.51
2022-11-29T22:28:51.450Z,3.35
2022-11-29T22:31:19.476Z,3.26
2022-11-29T22:33:47.426Z,3.28
2022-11-29T22:36:15.457Z,3.27
2022-11-29T22:38:44.711Z,3.23
2022-11-29T22:41:14.992Z,3.25
2022-11-29T22:43:43.737Z,3.27
2022-11-29T22:46:14.058Z,3.24
2022-11-29T22:48:43.808Z,3.13
2022-11-29T22:51:13.725Z,3.20
2022-11-29T22:53:43.189Z,3.28
2022-11-29T22:56:13.872Z,3.26
2022-11-29T22:58:41.855Z,3.23
2022-11-29T23:01:13.941Z,3.24
2022-11-29T23:03:43.339Z,3.18
2022-11-29T23:06:13.527Z,3.24
2022-11-29T23:08:42.788Z,3.25
2022-11-29T23:11:14.682Z,3.27
2022-11-29T23:13:43.432Z,3.25
2022-11-29T23:16:13.545Z,3.16
2022-11-29T23:18:42.289Z,4.34
2022-11-29T23:21:12.096Z,5.51
2022-11-29T23:23:39.906Z,5.77
2022-11-29T23:26:08.924Z,5.76
2022-11-29T23:28:38.450Z,5.94
2022-11-29T23:31:06.292Z,5.98
2022-11-29T23:33:34.033Z,5.97
2022-11-29T23:36:02.876Z,5.96
2022-11-29T23:38:31.018Z,5.65
2022-11-29T23:40:59.628Z,5.87
2022-11-29T23:43:30.485Z,6.09
2022-11-29T23:45:59.922Z,5.90
2022-11-29T23:48:28.744Z,5.47
2022-11-29T23:50:56.533Z,5.58
2022-11-29T23:53:24.310Z,5.57
2022-11-29T23:55:57.330Z,5.64
2022-11-29T23:58:25.692Z,5.46
